Time;durP1;ratioP1;P1;durP2;ratioP2;P2;SDS_P1;SDS_P2;PMS_P1;PMS_P2;Temp;Humidity;BMP_temperature;BMP_pressure;BME280_temperature;BME280_humidity;BME280_pressure;Samples;Min_cycle;Max_cycle;Signal;HPM_P1;HPM_P2
2022/03/06 00:01:59;;;;;;;10.72;6.33;;;;;;;0.39;96.19;147770.28;1662835;85;49455;-58
2022/03/06 00:04:27;;;;;;;9.73;6.05;;;;;;;0.35;96.18;147761.27;1663269;86;20914;-59
2022/03/06 00:06:54;;;;;;;9.38;5.72;;;;;;;0.34;96.28;147758.69;1662680;85;21087;-59
2022/03/06 00:09:21;;;;;;;11.25;6.25;;;;;;;0.34;96.38;147757.44;1637545;86;21037;-58
2022/03/06 00:11:52;;;;;;;10.38;6.40;;;;;;;0.33;96.67;147756.11;1672350;85;21510;-59
2022/03/06 00:14:20;;;;;;;12.68;7.00;;;;;;;0.32;96.81;147752.23;1677023;85;21894;-59
2022/03/06 00:16:47;;;;;;;10.15;5.55;;;;;;;0.29;97.09;147745.83;1676634;85;21020;-59
2022/03/06 00:19:14;;;;;;;10.28;5.97;;;;;;;0.27;97.44;147740.69;1677115;85;21123;-58
2022/03/06 00:21:41;;;;;;;9.55;6.30;;;;;;;0.25;97.58;147735.53;1671681;85;21064;-58
2022/03/06 00:24:08;;;;;;;10.00;5.80;;;;;;;0.23;97.76;147730.39;1649398;86;21624;-59
2022/03/06 00:26:36;;;;;;;11.18;6.70;;;;;;;0.21;98.27;147726.50;1649368;86;21253;-58
2022/03/06 00:29:03;;;;;;;11.50;6.40;;;;;;;0.21;98.21;147726.50;1620126;88;21064;-59
2022/03/06 00:31:31;;;;;;;10.15;6.22;;;;;;;0.20;98.42;147723.94;1631319;87;21075;-57
2022/03/06 00:33:58;;;;;;;8.85;5.83;;;;;;;0.21;98.59;147725.20;1610725;87;21279;-58
2022/03/06 00:36:25;;;;;;;11.10;6.67;;;;;;;0.20;98.79;147722.63;1635270;85;21120;-58
2022/03/06 00:38:53;;;;;;;11.63;6.72;;;;;;;0.19;98.84;147720.06;1638500;86;21295;-59
2022/03/06 00:41:24;;;;;;;15.25;9.05;;;;;;;0.20;98.86;147723.94;1637892;86;21058;-57
2022/03/06 00:43:52;;;;;;;11.95;6.72;;;;;;;0.20;99.12;147723.94;1637763;86;21019;-59
2022/03/06 00:46:19;;;;;;;11.93;6.72;;;;;;;0.18;99.36;147717.48;1638777;87;21075;-58
2022/03/06 00:48:46;;;;;;;11.05;7.20;;;;;;;0.17;99.48;147716.22;1634805;87;21573;-58
2022/03/06 00:51:14;;;;;;;10.30;6.47;;;;;;;0.16;99.55;147712.34;1632186;87;21230;-57
2022/03/06 00:53:42;;;;;;;10.82;6.33;;;;;;;0.17;99.66;147716.22;1631906;86;21159;-58
2022/03/06 00:56:10;;;;;;;10.58;6.30;;;;;;;0.16;99.82;147713.66;1632229;87;21079;-57
2022/03/06 00:58:38;;;;;;;13.50;7.10;;;;;;;0.16;99.83;147712.34;1632089;86;21049;-58
2022/03/06 01:01:06;;;;;;;13.20;7.50;;;;;;;0.13;99.80;147707.19;1631934;87;21063;-59
2022/03/06 01:03:33;;;;;;;11.12;6.58;;;;;;;0.12;99.85;147704.63;1632763;87;21137;-58
2022/03/06 01:06:00;;;;;;;13.85;7.58;;;;;;;0.12;99.98;147703.36;1631682;87;21067;-59
2022/03/06 01:08:27;;;;;;;10.93;6.55;;;;;;;0.11;99.85;147702.05;1632520;86;21025;-59
2022/03/06 01:10:55;;;;;;;10.53;6.67;;;;;;;0.11;99.86;147700.75;1644916;86;21008;-58
2022/03/06 01:13:24;;;;;;;13.93;7.25;;;;;;;0.11;99.92;147700.75;1635528;87;21533;-67
2022/03/06 01:15:51;;;;;;;9.80;6.10;;;;;;;0.09;99.98;147695.59;1603011;87;22113;-63
2022/03/06 01:18:20;;;;;;;10.05;6.40;;;;;;;0.07;99.99;147690.45;1630641;88;21044;-58
2022/03/06 01:20:49;;;;;;;11.43;6.78;;;;;;;0.04;99.98;147682.73;1635203;87;21015;-63
2022/03/06 01:23:16;;;;;;;11.93;7.10;;;;;;;0.01;100.00;147675.02;1612869;88;21112;-63
2022/03/06 01:25:43;;;;;;;11.18;6.35;;;;;;;-0.05;100.00;147662.16;1642392;85;21112;-63
2022/03/06 01:28:10;;;;;;;10.20;6.33;;;;;;;-0.10;100.00;147649.31;1642687;87;21117;-63
2022/03/06 01:30:37;;;;;;;11.00;6.70;;;;;;;-0.15;100.00;147636.41;1640723;87;20968;-63
2022/03/06 01:33:06;;;;;;;10.50;6.47;;;;;;;-0.22;100.00;147619.72;1646948;87;22135;-63
2022/03/06 01:35:33;;;;;;;12.73;8.10;;;;;;;-0.27;100.00;147605.55;1612361;88;21162;-63
2022/03/06 01:38:00;;;;;;;17.62;8.63;;;;;;;-0.34;100.00;147590.06;1667730;85;21722;-63
2022/03/06 01:40:27;;;;;;;12.85;7.78;;;;;;;-0.39;100.00;147577.22;1668313;86;21221;-63
2022/03/06 01:42:54;;;;;;;13.58;8.28;;;;;;;-0.45;100.00;147563.06;1667596;85;21075;-63
2022/03/06 01:45:23;;;;;;;13.55;8.13;;;;;;;-0.49;100.00;147551.50;1668197;85;21040;-63
2022/03/06 01:47:52;;;;;;;14.38;8.25;;;;;;;-0.54;100.00;147538.66;1668149;85;21059;-63
2022/03/06 01:50:27;;;;;;;14.93;8.15;;;;;;;-0.60;100.00;147525.75;1668366;85;21536;-63
2022/03/06 01:52:56;;;;;;;12.43;7.53;;;;;;;-0.64;100.00;147514.22;1668494;85;21724;-63
2022/03/06 01:55:24;;;;;;;11.73;7.45;;;;;;;-0.69;100.00;147501.31;1668153;85;21079;-64
2022/03/06 01:57:55;;;;;;;14.87;7.97;;;;;;;-0.75;100.00;147488.47;1668527;85;21028;-64
2022/03/06 02:00:25;;;;;;;15.65;8.30;;;;;;;-0.77;100.00;147482.06;1668169;86;21067;-63
2022/03/06 02:02:52;;;;;;;15.10;7.87;;;;;;;-0.82;100.00;147470.47;1639202;86;21533;-64
2022/03/06 02:05:20;;;;;;;14.70;8.95;;;;;;;-0.88;100.00;147455.06;1647357;87;21282;-63
2022/03/06 02:07:47;;;;;;;17.37;8.95;;;;;;;-0.91;100.00;147448.59;1612390;89;21148;-63
2022/03/06 02:10:16;;;;;;;16.48;8.90;;;;;;;-0.94;100.00;147440.91;1651447;85;21000;-64
2022/03/06 02:12:44;;;;;;;19.00;9.58;;;;;;;-0.97;100.00;147433.19;1669624;84;20993;-64
2022/03/06 02:15:12;;;;;;;17.07;9.63;;;;;;;-0.98;100.00;147429.31;1670168;84;21502;-64
2022/03/06 02:17:39;;;;;;;21.23;10.10;;;;;;;-1.01;100.00;147424.17;1670333;85;21216;-64
2022/03/06 02:20:14;;;;;;;17.77;10.10;;;;;;;-1.03;100.00;147419.03;1670084;85;21012;-64
2022/03/06 02:22:46;;;;;;;18.50;10.28;;;;;;;-1.06;100.00;147410.02;1653795;85;20850;-64
2022/03/06 02:25:32;;;;;;;18.45;9.63;;;;;;;-1.09;100.00;147402.31;1641230;86;21490;-64
2022/03/06 02:28:03;;;;;;;21.00;10.23;;;;;;;-1.11;100.00;147398.44;1642156;87;21497;-62
2022/03/06 02:30:32;;;;;;;21.97;9.95;;;;;;;-1.14;100.00;147389.45;1638941;86;21078;-64
2022/03/06 02:33:02;;;;;;;21.75;10.55;;;;;;;-1.16;100.00;147386.89;1631588;86;21119;-62
2022/03/06 02:35:29;;;;;;;20.17;10.43;;;;;;;-1.18;100.00;147381.75;1631294;86;21588;-64
2022/03/06 02:37:57;;;;;;;17.80;10.58;;;;;;;-1.21;100.00;147374.05;1630874;87;21135;-64
2022/03/06 02:40:24;;;;;;;16.97;9.93;;;;;;;-1.23;100.00;147368.86;1604859;89;21097;-64
2022/03/06 02:42:52;;;;;;;17.52;9.73;;;;;;;-1.24;100.00;147365.03;1604543;89;21465;-63
2022/03/06 02:45:25;;;;;;;21.02;9.85;;;;;;;-1.26;100.00;147361.16;1605027;89;21093;-64
2022/03/06 02:47:54;;;;;;;16.55;9.60;;;;;;;-1.27;100.00;147358.58;1605394;89;21063;-63
2022/03/06 02:50:24;;;;;;;20.82;10.30;;;;;;;-1.30;100.00;147350.88;1605012;88;21072;-63
2022/03/06 02:52:53;;;;;;;18.52;9.68;;;;;;;-1.31;100.00;147348.31;1604890;89;21127;-62
2022/03/06 02:55:21;;;;;;;19.65;10.32;;;;;;;-1.32;100.00;147345.73;1604478;87;21226;-58
2022/03/06 02:57:48;;;;;;;19.30;10.75;;;;;;;-1.33;100.00;147343.17;1604323;89;21148;-58
2022/03/06 03:00:18;;;;;;;15.53;9.03;;;;;;;-1.34;100.00;147340.59;1604774;89;21217;-64
2022/03/06 03:02:45;;;;;;;19.90;10.32;;;;;;;-1.35;100.00;147338.03;1604721;89;21079;-64
2022/03/06 03:05:13;;;;;;;18.92;9.98;;;;;;;-1.38;100.00;147331.58;1604714;89;21074;-63
2022/03/06 03:07:45;;;;;;;19.45;10.35;;;;;;;-1.39;100.00;147327.75;1604604;89;21168;-63
2022/03/06 03:10:15;;;;;;;17.98;10.08;;;;;;;-1.40;100.00;147325.19;1604434;89;21116;-63
2022/03/06 03:12:42;;;;;;;19.42;10.03;;;;;;;-1.41;100.00;147322.63;1669764;85;21569;-63
2022/03/06 03:15:10;;;;;;;17.62;9.88;;;;;;;-1.44;100.00;147316.17;1669972;85;21104;-63
2022/03/06 03:17:37;;;;;;;20.48;10.85;;;;;;;-1.46;100.00;147312.30;1670290;84;20954;-63
2022/03/06 03:20:08;;;;;;;18.90;10.82;;;;;;;-1.47;100.00;147309.72;1670036;85;21241;-64
2022/03/06 03:22:35;;;;;;;22.10;11.57;;;;;;;-1.48;100.00;147307.16;1655191;85;20922;-63
2022/03/06 03:25:04;;;;;;;19.95;11.10;;;;;;;-1.48;100.00;147307.16;1614557;87;21167;-63
2022/03/06 03:27:31;;;;;;;19.45;11.15;;;;;;;-1.47;100.00;147308.47;1642570;86;21032;-64
2022/03/06 03:29:59;;;;;;;17.40;9.80;;;;;;;-1.45;100.00;147314.86;1640389;87;21553;-60
2022/03/06 03:32:26;;;;;;;18.00;10.32;;;;;;;-1.44;100.00;147316.17;1647347;85;21738;-57
2022/03/06 03:34:53;;;;;;;19.90;10.55;;;;;;;-1.43;100.00;147317.48;1611601;88;21080;-63
2022/03/06 03:37:20;;;;;;;17.25;10.10;;;;;;;-1.46;100.00;147312.30;1667806;86;21098;-57
2022/03/06 03:39:48;;;;;;;16.37;9.75;;;;;;;-1.48;100.00;147307.16;1667692;86;21070;-63
2022/03/06 03:42:16;;;;;;;20.77;10.40;;;;;;;-1.51;100.00;147298.19;1667637;86;21082;-64
2022/03/06 03:44:43;;;;;;;20.48;10.72;;;;;;;-1.53;100.00;147294.31;1667522;85;21657;-59
2022/03/06 03:47:10;;;;;;;19.27;10.43;;;;;;;-1.57;100.00;147284.03;1667504;86;21107;-65
2022/03/06 03:49:38;;;;;;;18.75;10.70;;;;;;;-1.59;100.00;147280.16;1667405;85;21079;-64
2022/03/06 03:52:06;;;;;;;20.35;10.13;;;;;;;-1.62;100.00;147271.20;1667258;85;21071;-64
2022/03/06 03:54:33;;;;;;;21.57;10.53;;;;;;;-1.65;100.00;147264.75;1667734;86;21578;-57
2022/03/06 03:57:00;;;;;;;17.95;9.63;;;;;;;-1.68;100.00;147255.75;1667426;86;21303;-63
2022/03/06 03:59:28;;;;;;;19.32;9.75;;;;;;;-1.70;100.00;147250.61;1667711;86;20977;-58
2022/03/06 04:01:57;;;;;;;17.60;9.43;;;;;;;-1.74;100.00;147242.91;1667794;86;21065;-58
2022/03/06 04:04:26;;;;;;;21.57;9.55;;;;;;;-1.76;100.00;147237.77;1668044;85;21095;-58
2022/03/06 04:06:53;;;;;;;18.82;9.83;;;;;;;-1.76;100.00;147236.52;1667439;85;21055;-58
2022/03/06 04:09:22;;;;;;;15.48;8.58;;;;;;;-1.79;100.00;147230.06;1638354;86;21076;-57
2022/03/06 04:11:49;;;;;;;20.35;9.40;;;;;;;-1.82;100.00;147222.36;1629294;88;21112;-57
2022/03/06 04:14:17;;;;;;;17.90;8.73;;;;;;;-1.84;100.00;147215.92;1629414;87;21628;-57
2022/03/06 04:16:45;;;;;;;20.08;9.03;;;;;;;-1.87;100.00;147209.53;1630439;88;21004;-63
2022/03/06 04:19:13;;;;;;;16.10;8.20;;;;;;;-1.87;100.00;147209.53;1630315;86;21124;-63
2022/03/06 04:21:40;;;;;;;19.02;8.98;;;;;;;-1.89;100.00;147205.64;1632350;87;21479;-63
2022/03/06 04:24:07;;;;;;;19.48;8.88;;;;;;;-1.91;100.00;147199.20;1642063;86;21109;-63
2022/03/06 04:26:35;;;;;;;16.02;8.78;;;;;;;-1.92;100.00;147196.64;1641370;86;21063;-63
2022/03/06 04:29:04;;;;;;;17.27;9.05;;;;;;;-1.94;100.00;147191.50;1627375;87;21107;-63
2022/03/06 04:31:32;;;;;;;19.17;9.90;;;;;;;-1.96;100.00;147187.67;1637634;87;21451;-58
2022/03/06 04:33:59;;;;;;;18.95;9.63;;;;;;;-1.97;100.00;147183.80;1623521;87;21433;-58
2022/03/06 04:36:26;;;;;;;17.50;9.78;;;;;;;-1.98;100.00;147181.23;1622384;88;21070;-58
2022/03/06 04:38:54;;;;;;;18.83;9.73;;;;;;;-2.00;100.00;147176.09;1622195;88;21101;-58
2022/03/06 04:41:21;;;;;;;20.00;10.43;;;;;;;-2.02;100.00;147173.53;1622728;88;21573;-58
2022/03/06 04:43:50;;;;;;;15.63;8.83;;;;;;;-2.01;100.00;147174.78;1622957;88;21309;-58
2022/03/06 04:46:18;;;;;;;18.45;9.53;;;;;;;-1.99;100.00;147178.66;1622685;88;22187;-57
2022/03/06 04:48:45;;;;;;;18.70;9.20;;;;;;;-1.98;100.00;147182.53;1623302;87;21112;-57
2022/03/06 04:51:12;;;;;;;17.42;9.60;;;;;;;-1.95;100.00;147188.94;1622163;88;21559;-59
2022/03/06 04:53:40;;;;;;;18.90;8.73;;;;;;;-1.82;100.00;147222.36;1622759;88;21034;-59
2022/03/06 04:56:07;;;;;;;16.00;9.20;;;;;;;-1.52;100.00;147296.88;1594004;89;21024;-58
2022/03/06 04:58:35;;;;;;;18.80;9.75;;;;;;;-1.10;100.00;147399.73;1653457;86;21901;-58
2022/03/06 05:01:03;;;;;;;16.05;9.08;;;;;;;-0.80;100.00;147474.31;1620745;87;21034;-57
2022/03/06 05:03:31;;;;;;;17.20;9.20;;;;;;;-0.73;100.00;147493.59;1653951;85;20921;-58
2022/03/06 05:05:58;;;;;;;16.37;8.40;;;;;;;-0.72;100.00;147494.91;1621120;88;21177;-58
2022/03/06 05:08:28;;;;;;;14.10;8.13;;;;;;;-0.70;100.00;147500.06;1653843;86;21028;-62
2022/03/06 05:10:56;;;;;;;14.98;8.80;;;;;;;-0.69;100.00;147502.63;1631776;86;21257;-63
2022/03/06 05:13:25;;;;;;;14.63;8.78;;;;;;;-0.65;100.00;147511.64;1619012;88;21478;-63
2022/03/06 05:15:53;;;;;;;17.17;8.58;;;;;;;-0.59;100.00;147528.33;1633022;86;21118;-63
2022/03/06 05:18:20;;;;;;;18.20;9.55;;;;;;;-0.52;100.00;147543.80;1633728;86;21066;-63
2022/03/06 05:20:48;;;;;;;15.30;8.60;;;;;;;-0.45;100.00;147563.06;1633094;87;21816;-63
2022/03/06 05:23:17;;;;;;;16.17;8.65;;;;;;;-0.32;100.00;147593.95;1620047;87;21585;-65
2022/03/06 05:25:47;;;;;;;15.20;8.40;;;;;;;-0.17;100.00;147631.25;1623777;87;21497;-64
2022/03/06 05:28:15;;;;;;;15.93;8.40;;;;;;;-0.08;100.00;147654.45;1637096;85;21068;-64
2022/03/06 05:30:42;;;;;;;14.70;8.08;;;;;;;0.08;100.00;147693.03;1648286;86;20997;-64
2022/03/06 05:33:09;;;;;;;14.03;8.13;;;;;;;0.27;100.00;147741.94;1649958;86;21119;-64
2022/03/06 05:35:36;;;;;;;13.70;7.78;;;;;;;0.44;100.00;147783.16;1650443;86;21437;-64
2022/03/06 05:38:03;;;;;;;12.68;8.05;;;;;;;0.60;100.00;147821.78;1650124;86;21080;-64
2022/03/06 05:40:30;;;;;;;13.90;7.87;;;;;;;0.78;100.00;147866.84;1650887;86;21024;-63
2022/03/06 05:42:58;;;;;;;14.58;8.68;;;;;;;0.93;100.00;147905.50;1650392;86;21643;-63
2022/03/06 05:45:27;;;;;;;13.75;7.95;;;;;;;1.08;100.00;147942.84;1632781;85;21103;-63
2022/03/06 05:47:54;;;;;;;16.07;7.95;;;;;;;1.17;100.00;147964.75;1624211;86;21224;-63
2022/03/06 05:50:21;;;;;;;15.00;8.43;;;;;;;1.25;100.00;147984.08;1623137;86;21087;-63
2022/03/06 05:52:49;;;;;;;14.33;8.20;;;;;;;1.22;99.77;147976.36;1623954;88;21146;-63
2022/03/06 05:55:16;;;;;;;13.95;8.05;;;;;;;1.23;99.08;147978.94;1624447;88;21124;-63
2022/03/06 05:57:44;;;;;;;13.35;8.08;;;;;;;1.28;98.78;147991.80;1624449;88;21617;-63
2022/03/06 06:00:13;;;;;;;12.60;8.18;;;;;;;1.38;98.61;148016.28;1624272;88;21263;-63
2022/03/06 06:02:40;;;;;;;16.40;8.40;;;;;;;1.48;97.62;148040.77;1624375;88;21135;-63
2022/03/06 06:05:08;;;;;;;13.58;8.00;;;;;;;1.56;97.26;148061.37;1624149;88;21079;-64
2022/03/06 06:07:35;;;;;;;16.50;8.83;;;;;;;1.67;96.78;148089.75;1624587;88;21101;-64
2022/03/06 06:10:06;;;;;;;12.68;7.33;;;;;;;1.74;95.35;148106.45;1622537;88;21000;-63
2022/03/06 06:12:33;;;;;;;14.07;7.92;;;;;;;1.75;94.31;148107.77;1628149;86;21249;-63
2022/03/06 06:15:00;;;;;;;17.25;8.05;;;;;;;1.84;94.20;148130.95;1629831;86;21088;-63
2022/03/06 06:17:29;;;;;;;15.10;8.15;;;;;;;2.09;94.34;148192.81;1652723;85;21036;-66
2022/03/06 06:19:56;;;;;;;12.60;7.42;;;;;;;2.39;93.89;148267.63;1651974;86;21564;-63
2022/03/06 06:22:23;;;;;;;14.90;7.65;;;;;;;2.60;92.37;148319.22;1639997;86;21163;-63
2022/03/06 06:24:50;;;;;;;16.30;9.28;;;;;;;2.63;90.67;148328.22;1625296;86;21210;-64
2022/03/06 06:27:17;;;;;;;14.13;8.58;;;;;;;2.57;89.09;148312.75;1626678;86;21541;-63
2022/03/06 06:29:45;;;;;;;15.75;8.75;;;;;;;2.52;88.59;148301.13;1614193;88;21099;-64
2022/03/06 06:32:13;;;;;;;14.18;8.20;;;;;;;2.48;88.14;148290.83;1600485;88;21109;-63
2022/03/06 06:34:40;;;;;;;14.33;8.50;;;;;;;2.39;87.19;148268.89;1601122;88;21021;-63
2022/03/06 06:37:08;;;;;;;20.50;9.98;;;;;;;2.32;86.27;148249.55;1601041;88;21226;-64
2022/03/06 06:39:35;;;;;;;16.32;8.15;;;;;;;2.21;86.12;148223.78;1601260;89;21117;-65
2022/03/06 06:42:03;;;;;;;14.45;8.18;;;;;;;2.17;85.98;148212.16;1601350;88;21766;-63
2022/03/06 06:44:32;;;;;;;13.20;7.95;;;;;;;2.14;85.79;148207.02;1601345;89;21060;-64
2022/03/06 06:47:00;;;;;;;13.80;8.03;;;;;;;2.15;85.73;148209.59;1601499;89;21087;-64
2022/03/06 06:49:28;;;;;;;15.93;8.18;;;;;;;2.12;85.21;148200.59;1601597;89;21542;-64
2022/03/06 06:51:55;;;;;;;14.28;7.15;;;;;;;2.09;85.54;148194.13;1601153;88;21058;-64
2022/03/06 06:54:23;;;;;;;13.40;8.18;;;;;;;2.09;84.83;148192.81;1601972;88;21055;-64
2022/03/06 06:56:50;;;;;;;17.70;8.58;;;;;;;2.06;85.18;148185.09;1601401;88;21094;-64
2022/03/06 06:59:17;;;;;;;14.98;8.38;;;;;;;2.10;84.97;148195.41;1601455;88;21064;-64
2022/03/06 07:01:44;;;;;;;14.75;8.00;;;;;;;2.14;84.93;148207.02;1601826;88;21969;-64
2022/03/06 07:04:11;;;;;;;14.78;8.63;;;;;;;2.18;85.19;148216.06;1601700;88;21434;-63
2022/03/06 07:06:39;;;;;;;14.87;8.03;;;;;;;2.29;84.26;148243.13;1600983;89;21095;-57
2022/03/06 07:09:06;;;;;;;14.55;8.40;;;;;;;2.36;84.07;148259.91;1600288;88;21060;-63
2022/03/06 07:11:33;;;;;;;15.25;9.25;;;;;;;2.49;84.09;148293.41;1619782;87;21050;-63
2022/03/06 07:14:01;;;;;;;12.10;7.30;;;;;;;2.63;83.83;148326.95;1616599;88;21246;-63
2022/03/06 07:16:28;;;;;;;14.80;7.97;;;;;;;2.92;84.30;148400.48;1617101;88;21466;-59
2022/03/06 07:18:56;;;;;;;13.78;7.28;;;;;;;3.23;83.36;148476.61;1621706;86;21107;-58
2022/03/06 07:21:24;;;;;;;13.70;7.30;;;;;;;3.52;82.59;148550.14;1636458;86;21064;-63
2022/03/06 07:23:51;;;;;;;11.38;5.90;;;;;;;3.93;79.46;148652.16;1607842;88;21180;-63
2022/03/06 07:26:18;;;;;;;12.05;6.05;;;;;;;3.93;79.46;148652.16;1636685;86;21486;-63
2022/03/06 07:28:47;;;;;;;11.97;6.20;;;;;;;4.02;78.30;148674.11;1617455;87;22141;-64
2022/03/06 07:31:14;;;;;;;12.33;6.65;;;;;;;3.98;77.74;148665.05;1624376;86;21572;-63
2022/03/06 07:33:41;;;;;;;11.57;6.45;;;;;;;3.93;77.92;148652.16;1602572;87;21099;-63
2022/03/06 07:36:08;;;;;;;11.63;7.20;;;;;;;3.99;77.86;148666.36;1602606;87;21154;-65
2022/03/06 07:38:35;;;;;;;9.85;6.17;;;;;;;4.05;77.37;148680.53;1603062;89;21868;-64
2022/03/06 07:41:02;;;;;;;10.53;5.83;;;;;;;4.00;76.64;148670.20;1602659;89;21127;-65
2022/03/06 07:43:30;;;;;;;10.63;6.35;;;;;;;3.86;76.18;148634.05;1603417;87;20960;-59
2022/03/06 07:45:57;;;;;;;9.00;5.42;;;;;;;3.73;76.42;148603.09;1603221;87;21306;-59
2022/03/06 07:48:24;;;;;;;9.10;4.92;;;;;;;3.66;75.22;148585.03;1603212;87;21115;-59
2022/03/06 07:50:51;;;;;;;8.10;4.70;;;;;;;3.51;74.46;148546.28;1602490;89;21914;-59
2022/03/06 07:53:18;;;;;;;8.85;4.65;;;;;;;3.43;74.71;148526.92;1603026;88;21783;-59
2022/03/06 07:55:46;;;;;;;7.85;4.33;;;;;;;3.40;73.93;148520.45;1603141;89;21052;-64
2022/03/06 07:58:13;;;;;;;7.60;4.25;;;;;;;3.36;71.16;148510.14;1603262;89;21091;-59
2022/03/06 08:00:40;;;;;;;7.45;4.30;;;;;;;3.24;71.19;148480.45;1603483;89;20984;-59
2022/03/06 08:03:08;;;;;;;12.07;5.20;;;;;;;3.21;72.67;148471.47;1603149;87;21256;-59
2022/03/06 08:05:36;;;;;;;8.80;4.90;;;;;;;3.18;73.20;148464.98;1603387;89;21052;-59
2022/03/06 08:08:04;;;;;;;9.93;5.00;;;;;;;3.18;73.59;148463.67;1603531;87;21075;-58
2022/03/06 08:10:31;;;;;;;9.70;4.87;;;;;;;3.14;73.82;148454.67;1612467;87;21034;-64
2022/03/06 08:13:00;;;;;;;8.68;5.05;;;;;;;3.09;74.44;148443.05;1615317;87;21152;-64
2022/03/06 08:15:27;;;;;;;9.58;5.15;;;;;;;3.07;74.51;148437.89;1646190;85;21881;-65
2022/03/06 08:17:54;;;;;;;8.30;4.92;;;;;;;3.07;75.07;148437.89;1617664;87;21100;-65
2022/03/06 08:20:21;;;;;;;8.73;4.80;;;;;;;3.08;75.30;148440.47;1655300;86;21115;-67
2022/03/06 08:22:49;;;;;;;8.85;4.50;;;;;;;3.09;75.01;148443.05;1652824;86;21138;-64
2022/03/06 08:25:19;;;;;;;9.00;4.97;;;;;;;3.09;74.95;148443.05;1652755;86;21063;-65
2022/03/06 08:28:04;;;;;;;6.78;4.28;;;;;;;3.12;75.10;148450.78;1653109;84;21126;-65
2022/03/06 08:30:32;;;;;;;9.98;4.58;;;;;;;3.19;74.67;148466.25;1634674;85;21027;-65
2022/03/06 08:33:01;;;;;;;7.62;4.10;;;;;;;3.23;74.85;148476.61;1624693;87;21026;-64
2022/03/06 08:35:29;;;;;;;5.70;3.52;;;;;;;3.27;72.83;148486.94;1625219;88;21050;-64
2022/03/06 08:37:56;;;;;;;6.83;3.20;;;;;;;3.29;71.90;148492.09;1625194;87;21141;-64
2022/03/06 08:40:25;;;;;;;4.00;2.72;;;;;;;3.33;71.12;148501.13;1625603;88;21583;-64
2022/03/06 08:42:52;;;;;;;6.42;2.75;;;;;;;3.34;68.45;148504.97;1624591;88;21595;-64
2022/03/06 08:45:19;;;;;;;4.03;2.92;;;;;;;3.34;67.80;148503.72;1624877;88;21161;-65
2022/03/06 08:47:48;;;;;;;5.12;2.25;;;;;;;3.34;67.19;148504.97;1624773;87;21607;-59
2022/03/06 08:50:15;;;;;;;4.85;2.65;;;;;;;3.36;66.86;148510.14;1624828;88;21110;-58
2022/03/06 08:52:42;;;;;;;5.35;2.60;;;;;;;3.37;66.55;148512.72;1625294;88;24245;-59
2022/03/06 08:55:12;;;;;;;4.70;3.30;;;;;;;3.42;65.78;148525.61;1624852;88;21109;-59
2022/03/06 08:57:39;;;;;;;6.25;3.67;;;;;;;3.41;65.40;148523.03;1625308;88;21038;-64
2022/03/06 09:00:08;;;;;;;6.12;3.60;;;;;;;3.35;65.89;148507.56;1624794;88;21144;-64
2022/03/06 09:02:35;;;;;;;6.10;3.27;;;;;;;3.37;66.48;148511.45;1625489;87;21050;-58
2022/03/06 09:05:05;;;;;;;4.80;3.02;;;;;;;3.41;66.03;148523.03;1625423;88;21820;-64
2022/03/06 09:07:32;;;;;;;6.85;3.25;;;;;;;3.48;66.30;148538.56;1625675;87;21007;-57
2022/03/06 09:10:01;;;;;;;8.50;3.42;;;;;;;3.49;66.55;148541.12;1634214;86;21112;-59
2022/03/06 09:12:28;;;;;;;4.33;2.87;;;;;;;3.51;66.65;148546.28;1598123;88;21044;-59
2022/03/06 09:14:55;;;;;;;6.70;3.83;;;;;;;3.48;64.50;148538.56;1643307;85;21079;-59
2022/03/06 09:17:22;;;;;;;6.08;3.87;;;;;;;3.43;64.97;148528.23;1615230;87;21216;-59
2022/03/06 09:19:50;;;;;;;7.83;4.55;;;;;;;3.50;65.65;148543.72;1635272;86;21125;-59
2022/03/06 09:22:16;;;;;;;7.65;4.42;;;;;;;3.58;66.35;148564.34;1613199;88;21159;-59
2022/03/06 09:24:44;;;;;;;7.00;4.03;;;;;;;3.62;67.15;148574.66;1603939;88;21538;-59
2022/03/06 09:27:11;;;;;;;5.78;3.80;;;;;;;3.68;65.88;148590.19;1615686;88;21061;-58
2022/03/06 09:29:38;;;;;;;4.83;3.22;;;;;;;3.73;65.63;148601.77;1629919;87;21808;-58
2022/03/06 09:32:07;;;;;;;5.62;2.50;;;;;;;3.82;65.55;148625.03;1636207;86;21091;-58
2022/03/06 09:34:34;;;;;;;4.60;2.27;;;;;;;3.95;64.41;148656.00;1637195;87;21029;-59
2022/03/06 09:37:02;;;;;;;5.05;2.65;;;;;;;3.98;63.22;148663.78;1636951;86;21151;-65
2022/03/06 09:39:29;;;;;;;6.15;3.10;;;;;;;3.98;62.28;148665.05;1637288;87;21081;-65
2022/03/06 09:41:56;;;;;;;5.95;3.05;;;;;;;3.96;62.46;148659.89;1636899;87;21216;-65
2022/03/06 09:44:25;;;;;;;6.75;3.10;;;;;;;4.01;62.70;148672.78;1637798;87;21461;-59
2022/03/06 09:46:55;;;;;;;5.08;3.15;;;;;;;4.05;62.94;148680.53;1637233;86;21103;-59
2022/03/06 09:49:21;;;;;;;4.15;2.70;;;;;;;4.11;63.80;148696.06;1637563;87;21266;-58
2022/03/06 09:51:49;;;;;;;5.30;2.77;;;;;;;4.21;63.70;148721.86;1637335;87;21056;-59
2022/03/06 09:54:16;;;;;;;6.25;3.40;;;;;;;4.33;63.21;148751.56;1637256;87;21911;-59
2022/03/06 09:56:43;;;;;;;4.95;3.58;;;;;;;4.33;63.21;148751.56;1637666;87;20992;-59
2022/03/06 09:59:11;;;;;;;4.65;3.15;;;;;;;4.42;63.48;148773.53;1637413;87;21120;-59
2022/03/06 10:01:39;;;;;;;3.83;2.52;;;;;;;4.50;62.58;148794.17;1637393;86;21072;-59
2022/03/06 10:04:29;;;;;;;5.72;3.12;;;;;;;4.50;62.58;148794.17;1637162;87;21066;-64
2022/03/06 10:07:04;;;;;;;6.08;3.60;;;;;;;4.48;62.38;148789.02;1637973;86;21800;-59
2022/03/06 10:09:34;;;;;;;8.15;4.42;;;;;;;4.50;62.74;148792.91;1637886;87;21537;-58
2022/03/06 10:12:04;;;;;;;5.58;3.40;;;;;;;4.52;63.11;148799.34;1608977;87;21350;-58
2022/03/06 10:14:40;;;;;;;4.28;2.70;;;;;;;4.50;63.07;148792.91;1593846;87;21548;-59
2022/03/06 10:17:15;;;;;;;4.87;3.10;;;;;;;4.50;61.99;148794.17;1633295;87;21075;-59
2022/03/06 10:20:12;;;;;;;6.00;3.10;;;;;;;4.55;61.28;148807.13;1637250;87;21784;-59
2022/03/06 10:22:41;;;;;;;4.90;2.30;;;;;;;4.59;61.05;148817.45;1649545;86;20973;-64
2022/03/06 10:25:16;;;;;;;3.98;2.35;;;;;;;4.61;59.63;148820.03;1648875;86;21096;-64
2022/03/06 10:27:54;;;;;;;3.65;2.70;;;;;;;4.61;59.37;148821.30;1649856;86;21042;-64
2022/03/06 10:30:37;;;;;;;2.83;2.10;;;;;;;4.62;58.88;148822.63;1656663;85;21023;-64
2022/03/06 10:33:10;;;;;;;3.45;2.10;;;;;;;4.62;58.14;148822.63;1656003;86;21154;-65
2022/03/06 10:35:40;;;;;;;2.40;1.90;;;;;;;4.58;57.88;148814.88;1597240;86;21044;-64
2022/03/06 10:38:29;;;;;;;3.58;2.00;;;;;;;4.59;58.05;148817.45;1588847;88;21079;-65
2022/03/06 10:41:13;;;;;;;4.67;2.55;;;;;;;4.61;57.67;148820.03;1592344;88;21140;-64
2022/03/06 10:43:42;;;;;;;;;;;;;;;4.65;57.69;148831.67;1593761;88;21089;-64
2022/03/06 10:46:17;;;;;;;4.83;2.75;;;;;;;4.59;59.53;148816.14;1592020;90;21157;-64
2022/03/06 10:48:56;;;;;;;4.40;2.70;;;;;;;4.59;59.53;148816.14;1592584;90;21061;-65
2022/03/06 10:51:25;;;;;;;6.62;3.17;;;;;;;4.64;59.09;148829.09;1600679;88;21114;-64
2022/03/06 10:53:54;;;;;;;5.37;2.77;;;;;;;4.68;59.01;148838.11;1593895;89;21137;-64
2022/03/06 10:56:21;;;;;;;5.67;3.00;;;;;;;4.84;59.57;148879.47;1614439;87;21123;-65
2022/03/06 10:58:49;;;;;;;4.22;2.90;;;;;;;4.84;59.57;148879.47;1615939;87;21201;-65
2022/03/06 11:01:17;;;;;;;4.17;2.55;;;;;;;4.91;59.63;148896.27;1614811;88;21063;-65
2022/03/06 11:03:45;;;;;;;3.75;2.67;;;;;;;5.03;58.92;148925.98;1615278;88;21438;-64
2022/03/06 11:06:13;;;;;;;2.75;2.20;;;;;;;5.15;58.14;148956.97;1621464;87;21088;-59
2022/03/06 11:08:41;;;;;;;3.65;2.30;;;;;;;5.21;56.28;148969.94;1596457;88;21412;-58
2022/03/06 11:11:10;;;;;;;1.95;1.42;;;;;;;5.18;56.00;148962.14;1618263;87;21062;-58
2022/03/06 11:13:37;;;;;;;2.87;1.82;;;;;;;5.11;53.86;148945.37;1614585;87;21197;-64
2022/03/06 11:16:05;;;;;;;2.85;1.98;;;;;;;5.11;53.86;148945.37;1627344;87;21064;-65
2022/03/06 11:18:35;;;;;;;3.25;2.27;;;;;;;5.16;54.68;148959.56;1627625;87;21014;-64
2022/03/06 11:21:04;;;;;;;4.17;2.70;;;;;;;5.16;54.68;148959.56;1621744;86;21210;-64
2022/03/06 11:23:46;;;;;;;4.47;2.20;;;;;;;5.19;55.10;148964.72;1603555;87;21264;-64
2022/03/06 11:26:21;;;;;;;3.47;1.90;;;;;;;5.18;55.17;148962.14;1623588;87;21135;-64
2022/03/06 11:29:44;;;;;;;2.95;2.00;;;;;;;5.14;54.47;148954.39;1661186;84;21067;-64